Main page
METAR-TAF:

METAR-TAF

Airports :

Tenerife South, Spain

Tenerife–South Airport

latitude: 28-03N, longitude: 016-34W, elevation: 64 m

Current weather observation

The report was made 44 minutes ago, at 01:30 UTC
Wind 2 kt from the East
Temperature 20°C
Humidity 64%
Pressure 1016 hPa
Visibility 10 km or more
Few clouds at a height of 2800 ft
Broken clouds at a height of 3500 ft

METAR: GCTS 210130Z 08002KT 9999 FEW028 BKN035 20/13 Q1016 NOSIG

Time: 02:14 (02:14 UTC)

Forecast

The report was made 6 hours and 14 minutes ago, at 20:00 UTC
Forecast valid from 20 at 21 UTC to 21 at 21 UTC
Wind 5 kt from the North/Northwest
Visibility 10 km or more
Scattered clouds at a height of 3000 ft
Becoming
from 21 at 09 UTC to 21 at 12 UTC
Wind 13 kt from the West/Southwest
Becoming
from 21 at 17 UTC to 21 at 20 UTC
Wind 5 kt from the North

TAF: GCTS 202000Z 2021/2121 33005KT 9999 SCT030 TX25/2114Z TN15/2106Z BECMG 2109/2112 25013KT BECMG 2117/2120 36005KT

Weather observations and forecasts of more than 4000 airports (METAR and TAF reports).

The available stations are represented by yellow and red dots on the map.

Hover mouse over dot to see the name of the station.

Then click to see weather observations and forecasts.

To change the map : click on the green buttons with a black cross to zoom in, on the green button with a dash to zoom out, or on the green arrows for adjacent maps.


METAR-TAF: